Creek Data

    Home     View Charts     View Raw Data     Messages

ID Distance Battery Voltage Battery Current Internal Temp Internal Humidity External Temp Solar Input rssi snr Time Stamp Record
33473 14.8 3.93 10 48 34 55 5.1 -71 8 02/26/2025 08:45 AM 15164
33472 14.7 3.92 10 44 35 50 5.1 -71 8 02/26/2025 08:15 AM 15162
33471 14.7 3.92 10 42 35 48 5 -71 8 02/26/2025 08:00 AM 15161
33470 14.7 4.03 74 39 36 46 4.5 -71 8 02/26/2025 07:45 AM 15160
33469 14.7 3.99 58 37 36 40 4.5 -70 9 02/26/2025 07:30 AM 15159
33468 14.7 3.92 16 36 37 40 4.5 -70 8 02/26/2025 07:15 AM 15158
33467 14.6 3.93 8 36 37 38 4.5 -71 8 02/26/2025 07:00 AM 15157
33466 14.6 3.84 -9 35 37 38 4.5 -71 8 02/26/2025 06:45 AM 15156
33465 14.6 3.90 -5 35 37 38 1.4 -71 8 02/26/2025 06:30 AM 15155
33464 14.6 3.85 -5 35 37 38 0 -71 9 02/26/2025 06:15 AM 15154
33463 14.6 3.85 -5 35 38 38 0 -70 8 02/26/2025 06:00 AM 15153
33462 14.6 3.90 -5 34 38 38 0 -70 9 02/26/2025 05:45 AM 15152
33461 14.6 3.90 -5 35 37 37 0 -71 8 02/26/2025 05:30 AM 15151
33460 14.6 3.90 -5 35 38 38 0 -70 8 02/26/2025 05:15 AM 15150
33459 14.6 3.85 -5 34 38 37 0 -71 8 02/26/2025 05:00 AM 15149
33458 14.6 3.85 -5 35 38 37 0 -71 8 02/26/2025 04:45 AM 15148
33457 14.6 3.85 -5 35 38 37 0 -71 8 02/26/2025 04:30 AM 15147
33456 14.6 3.85 -5 35 38 37 0 -71 8 02/26/2025 04:15 AM 15146
33455 14.6 3.90 -5 35 38 38 0 -71 8 02/26/2025 04:00 AM 15145
33454 14.6 3.90 -5 35 38 38 0 -71 9 02/26/2025 03:45 AM 15144
33453 14.6 3.90 -5 35 38 37 0.1 -71 8 02/26/2025 03:30 AM 15143
33452 14.6 3.85 -5 36 38 38 0 -71 8 02/26/2025 03:15 AM 15142
33451 14.6 3.85 -5 36 38 40 0 -71 8 02/26/2025 03:00 AM 15141
33450 14.6 3.85 -5 37 38 39 0 -71 8 02/26/2025 02:45 AM 15140
33449 14.6 3.86 -5 37 39 39 0 -71 8 02/26/2025 02:30 AM 15139